sensor_id;sensor_type;location;lat;lon;timestamp;pressure;altitude;pressure_sealevel;temperature
20733;BMP180;10527;52.124;5.196;2023-11-19T00:00:11;100621.00;;;24.30
20733;BMP180;10527;52.124;5.196;2023-11-19T00:02:41;100610.00;;;24.30
20733;BMP180;10527;52.124;5.196;2023-11-19T00:05:11;100601.00;;;24.30
20733;BMP180;10527;52.124;5.196;2023-11-19T00:07:40;100598.00;;;24.30
20733;BMP180;10527;52.124;5.196;2023-11-19T00:10:15;100609.00;;;24.30
20733;BMP180;10527;52.124;5.196;2023-11-19T00:12:49;100604.00;;;24.30
20733;BMP180;10527;52.124;5.196;2023-11-19T00:15:18;100596.00;;;24.30
20733;BMP180;10527;52.124;5.196;2023-11-19T00:17:47;100600.00;;;24.30
20733;BMP180;10527;52.124;5.196;2023-11-19T00:20:20;100598.00;;;24.30
20733;BMP180;10527;52.124;5.196;2023-11-19T00:22:49;100598.00;;;24.30
20733;BMP180;10527;52.124;5.196;2023-11-19T00:25:20;100596.00;;;24.30
20733;BMP180;10527;52.124;5.196;2023-11-19T00:27:51;100595.00;;;24.30
20733;BMP180;10527;52.124;5.196;2023-11-19T00:30:21;100609.00;;;24.30
20733;BMP180;10527;52.124;5.196;2023-11-19T00:32:48;100594.00;;;24.30
20733;BMP180;10527;52.124;5.196;2023-11-19T00:35:16;100588.00;;;24.40
20733;BMP180;10527;52.124;5.196;2023-11-19T00:37:51;100586.00;;;24.40
20733;BMP180;10527;52.124;5.196;2023-11-19T00:40:19;100577.00;;;24.40
20733;BMP180;10527;52.124;5.196;2023-11-19T00:42:49;100577.00;;;24.40
20733;BMP180;10527;52.124;5.196;2023-11-19T00:45:17;100587.00;;;24.40
20733;BMP180;10527;52.124;5.196;2023-11-19T00:47:44;100557.00;;;24.40
20733;BMP180;10527;52.124;5.196;2023-11-19T00:50:11;100564.00;;;24.40
20733;BMP180;10527;52.124;5.196;2023-11-19T00:52:40;100569.00;;;24.30
20733;BMP180;10527;52.124;5.196;2023-11-19T00:55:08;100563.00;;;24.40
20733;BMP180;10527;52.124;5.196;2023-11-19T00:57:35;100571.00;;;24.40
20733;BMP180;10527;52.124;5.196;2023-11-19T01:00:05;100574.00;;;24.40
20733;BMP180;10527;52.124;5.196;2023-11-19T01:02:47;100575.00;;;24.40
20733;BMP180;10527;52.124;5.196;2023-11-19T01:05:17;100577.00;;;24.40
20733;BMP180;10527;52.124;5.196;2023-11-19T01:07:48;100579.00;;;24.30
20733;BMP180;10527;52.124;5.196;2023-11-19T01:10:16;100588.00;;;24.30
20733;BMP180;10527;52.124;5.196;2023-11-19T01:12:44;100571.00;;;24.30
20733;BMP180;10527;52.124;5.196;2023-11-19T01:15:11;100560.00;;;24.30
20733;BMP180;10527;52.124;5.196;2023-11-19T01:17:40;100565.00;;;24.30
20733;BMP180;10527;52.124;5.196;2023-11-19T01:20:19;100565.00;;;24.30
20733;BMP180;10527;52.124;5.196;2023-11-19T01:22:47;100546.00;;;24.30
20733;BMP180;10527;52.124;5.196;2023-11-19T01:25:16;100546.00;;;24.30
20733;BMP180;10527;52.124;5.196;2023-11-19T01:27:45;100541.00;;;24.30
20733;BMP180;10527;52.124;5.196;2023-11-19T01:30:13;100541.00;;;24.30
20733;BMP180;10527;52.124;5.196;2023-11-19T01:32:41;100549.00;;;24.30
20733;BMP180;10527;52.124;5.196;2023-11-19T01:35:08;100551.00;;;24.30
20733;BMP180;10527;52.124;5.196;2023-11-19T01:37:36;100553.00;;;24.30
20733;BMP180;10527;52.124;5.196;2023-11-19T01:40:04;100537.00;;;24.30
20733;BMP180;10527;52.124;5.196;2023-11-19T01:42:37;100549.00;;;24.30
20733;BMP180;10527;52.124;5.196;2023-11-19T01:45:08;100543.00;;;24.30
20733;BMP180;10527;52.124;5.196;2023-11-19T01:47:38;100551.00;;;24.30
20733;BMP180;10527;52.124;5.196;2023-11-19T01:50:07;100545.00;;;24.30
20733;BMP180;10527;52.124;5.196;2023-11-19T01:52:36;100554.00;;;24.30
20733;BMP180;10527;52.124;5.196;2023-11-19T01:55:06;100547.00;;;24.20
20733;BMP180;10527;52.124;5.196;2023-11-19T01:57:36;100539.00;;;24.20
20733;BMP180;10527;52.124;5.196;2023-11-19T02:00:09;100551.00;;;24.20
20733;BMP180;10527;52.124;5.196;2023-11-19T02:02:41;100549.00;;;24.20
20733;BMP180;10527;52.124;5.196;2023-11-19T02:05:11;100562.00;;;24.20
20733;BMP180;10527;52.124;5.196;2023-11-19T02:07:40;100551.00;;;24.10
20733;BMP180;10527;52.124;5.196;2023-11-19T02:10:08;100533.00;;;24.10
20733;BMP180;10527;52.124;5.196;2023-11-19T02:12:43;100538.00;;;24.10
20733;BMP180;10527;52.124;5.196;2023-11-19T02:15:11;100540.00;;;24.00
20733;BMP180;10527;52.124;5.196;2023-11-19T02:17:38;100542.00;;;24.00
20733;BMP180;10527;52.124;5.196;2023-11-19T02:20:06;100556.00;;;24.00
20733;BMP180;10527;52.124;5.196;2023-11-19T02:22:39;100558.00;;;23.90
20733;BMP180;10527;52.124;5.196;2023-11-19T02:25:29;100567.00;;;23.90
20733;BMP180;10527;52.124;5.196;2023-11-19T02:28:01;100562.00;;;23.90
20733;BMP180;10527;52.124;5.196;2023-11-19T02:30:29;100563.00;;;23.80
20733;BMP180;10527;52.124;5.196;2023-11-19T02:32:57;100567.00;;;23.80
20733;BMP180;10527;52.124;5.196;2023-11-19T02:35:26;100566.00;;;23.80
20733;BMP180;10527;52.124;5.196;2023-11-19T02:37:54;100557.00;;;23.80
20733;BMP180;10527;52.124;5.196;2023-11-19T02:40:22;100551.00;;;23.80
20733;BMP180;10527;52.124;5.196;2023-11-19T02:42:53;100566.00;;;23.70
20733;BMP180;10527;52.124;5.196;2023-11-19T02:45:23;100560.00;;;23.70
20733;BMP180;10527;52.124;5.196;2023-11-19T02:47:51;100555.00;;;23.70
20733;BMP180;10527;52.124;5.196;2023-11-19T02:50:20;100547.00;;;23.60
20733;BMP180;10527;52.124;5.196;2023-11-19T02:52:55;100541.00;;;23.60
20733;BMP180;10527;52.124;5.196;2023-11-19T02:55:26;100546.00;;;23.60
20733;BMP180;10527;52.124;5.196;2023-11-19T02:57:55;100553.00;;;23.60
20733;BMP180;10527;52.124;5.196;2023-11-19T03:00:26;100540.00;;;23.60
20733;BMP180;10527;52.124;5.196;2023-11-19T03:03:03;100545.00;;;23.50
20733;BMP180;10527;52.124;5.196;2023-11-19T03:06:00;100543.00;;;23.50
20733;BMP180;10527;52.124;5.196;2023-11-19T03:08:32;100535.00;;;23.50
20733;BMP180;10527;52.124;5.196;2023-11-19T03:11:00;100545.00;;;23.50
20733;BMP180;10527;52.124;5.196;2023-11-19T03:13:28;100541.00;;;23.50
20733;BMP180;10527;52.124;5.196;2023-11-19T03:15:55;100540.00;;;23.40
20733;BMP180;10527;52.124;5.196;2023-11-19T03:18:23;100546.00;;;23.40
20733;BMP180;10527;52.124;5.196;2023-11-19T03:20:50;100559.00;;;23.40
20733;BMP180;10527;52.124;5.196;2023-11-19T03:23:18;100563.00;;;23.40
20733;BMP180;10527;52.124;5.196;2023-11-19T03:25:45;100566.00;;;23.40
20733;BMP180;10527;52.124;5.196;2023-11-19T03:28:13;100554.00;;;23.40
20733;BMP180;10527;52.124;5.196;2023-11-19T03:30:40;100547.00;;;23.40
20733;BMP180;10527;52.124;5.196;2023-11-19T03:33:08;100542.00;;;23.40
20733;BMP180;10527;52.124;5.196;2023-11-19T03:35:35;100526.00;;;23.40
20733;BMP180;10527;52.124;5.196;2023-11-19T03:38:03;100517.00;;;23.40
20733;BMP180;10527;52.124;5.196;2023-11-19T03:40:30;100516.00;;;23.40
20733;BMP180;10527;52.124;5.196;2023-11-19T03:42:59;100515.00;;;23.30
20733;BMP180;10527;52.124;5.196;2023-11-19T03:45:26;100521.00;;;23.30
20733;BMP180;10527;52.124;5.196;2023-11-19T03:47:54;100549.00;;;23.30
20733;BMP180;10527;52.124;5.196;2023-11-19T03:50:22;100535.00;;;23.30
20733;BMP180;10527;52.124;5.196;2023-11-19T03:52:51;100535.00;;;23.20
20733;BMP180;10527;52.124;5.196;2023-11-19T03:55:19;100538.00;;;23.20
20733;BMP180;10527;52.124;5.196;2023-11-19T03:57:47;100553.00;;;23.20
20733;BMP180;10527;52.124;5.196;2023-11-19T04:00:16;100549.00;;;23.10
20733;BMP180;10527;52.124;5.196;2023-11-19T04:02:43;100550.00;;;23.10
20733;BMP180;10527;52.124;5.196;2023-11-19T04:05:11;100549.00;;;23.00
20733;BMP180;10527;52.124;5.196;2023-11-19T04:07:38;100555.00;;;23.00
20733;BMP180;10527;52.124;5.196;2023-11-19T04:10:06;100544.00;;;23.00
20733;BMP180;10527;52.124;5.196;2023-11-19T04:12:34;100563.00;;;23.00
20733;BMP180;10527;52.124;5.196;2023-11-19T04:15:02;100560.00;;;23.00
20733;BMP180;10527;52.124;5.196;2023-11-19T04:17:29;100567.00;;;22.90
20733;BMP180;10527;52.124;5.196;2023-11-19T04:19:57;100564.00;;;22.90
20733;BMP180;10527;52.124;5.196;2023-11-19T04:22:25;100571.00;;;22.90
20733;BMP180;10527;52.124;5.196;2023-11-19T04:24:53;100580.00;;;22.90
20733;BMP180;10527;52.124;5.196;2023-11-19T04:27:20;100570.00;;;22.90
20733;BMP180;10527;52.124;5.196;2023-11-19T04:29:48;100562.00;;;22.90
20733;BMP180;10527;52.124;5.196;2023-11-19T04:32:17;100566.00;;;22.90
20733;BMP180;10527;52.124;5.196;2023-11-19T04:34:45;100558.00;;;22.90
20733;BMP180;10527;52.124;5.196;2023-11-19T04:37:12;100548.00;;;22.90
20733;BMP180;10527;52.124;5.196;2023-11-19T04:39:40;100557.00;;;22.90
20733;BMP180;10527;52.124;5.196;2023-11-19T04:42:08;100564.00;;;22.80
20733;BMP180;10527;52.124;5.196;2023-11-19T04:44:35;100565.00;;;22.80
20733;BMP180;10527;52.124;5.196;2023-11-19T04:47:02;100557.00;;;22.80
20733;BMP180;10527;52.124;5.196;2023-11-19T04:49:30;100566.00;;;22.80
20733;BMP180;10527;52.124;5.196;2023-11-19T04:51:58;100554.00;;;22.80
20733;BMP180;10527;52.124;5.196;2023-11-19T04:54:25;100551.00;;;22.80
20733;BMP180;10527;52.124;5.196;2023-11-19T04:56:52;100546.00;;;22.80
20733;BMP180;10527;52.124;5.196;2023-11-19T04:59:20;100545.00;;;22.80
20733;BMP180;10527;52.124;5.196;2023-11-19T05:01:47;100561.00;;;22.80
20733;BMP180;10527;52.124;5.196;2023-11-19T05:04:15;100550.00;;;22.70
20733;BMP180;10527;52.124;5.196;2023-11-19T05:06:43;100548.00;;;22.70
20733;BMP180;10527;52.124;5.196;2023-11-19T05:09:11;100566.00;;;22.70
20733;BMP180;10527;52.124;5.196;2023-11-19T05:11:40;100571.00;;;22.70
20733;BMP180;10527;52.124;5.196;2023-11-19T05:14:10;100564.00;;;22.70
20733;BMP180;10527;52.124;5.196;2023-11-19T05:16:40;100568.00;;;22.70
20733;BMP180;10527;52.124;5.196;2023-11-19T05:19:08;100564.00;;;22.70
20733;BMP180;10527;52.124;5.196;2023-11-19T05:21:36;100561.00;;;22.70
20733;BMP180;10527;52.124;5.196;2023-11-19T05:24:04;100561.00;;;22.70
20733;BMP180;10527;52.124;5.196;2023-11-19T05:26:32;100542.00;;;22.60
20733;BMP180;10527;52.124;5.196;2023-11-19T05:28:59;100564.00;;;22.60
20733;BMP180;10527;52.124;5.196;2023-11-19T05:31:27;100574.00;;;22.60
20733;BMP180;10527;52.124;5.196;2023-11-19T05:33:54;100574.00;;;22.60
20733;BMP180;10527;52.124;5.196;2023-11-19T05:36:22;100571.00;;;22.60
20733;BMP180;10527;52.124;5.196;2023-11-19T05:38:49;100574.00;;;22.60
20733;BMP180;10527;52.124;5.196;2023-11-19T05:41:17;100570.00;;;22.60
20733;BMP180;10527;52.124;5.196;2023-11-19T05:43:44;100570.00;;;22.60
20733;BMP180;10527;52.124;5.196;2023-11-19T05:46:12;100558.00;;;22.60
20733;BMP180;10527;52.124;5.196;2023-11-19T05:48:43;100572.00;;;22.60
20733;BMP180;10527;52.124;5.196;2023-11-19T05:51:12;100565.00;;;22.60
20733;BMP180;10527;52.124;5.196;2023-11-19T05:53:43;100568.00;;;22.60
20733;BMP180;10527;52.124;5.196;2023-11-19T05:56:11;100574.00;;;22.60
20733;BMP180;10527;52.124;5.196;2023-11-19T05:58:38;100574.00;;;22.60
20733;BMP180;10527;52.124;5.196;2023-11-19T06:01:07;100573.00;;;22.50
20733;BMP180;10527;52.124;5.196;2023-11-19T06:03:35;100566.00;;;22.60
20733;BMP180;10527;52.124;5.196;2023-11-19T06:06:04;100570.00;;;22.50
20733;BMP180;10527;52.124;5.196;2023-11-19T06:08:32;100576.00;;;22.50
20733;BMP180;10527;52.124;5.196;2023-11-19T06:11:00;100568.00;;;22.50
20733;BMP180;10527;52.124;5.196;2023-11-19T06:13:29;100561.00;;;22.50
20733;BMP180;10527;52.124;5.196;2023-11-19T06:15:58;100573.00;;;22.50
20733;BMP180;10527;52.124;5.196;2023-11-19T06:18:26;100562.00;;;22.50
20733;BMP180;10527;52.124;5.196;2023-11-19T06:20:53;100571.00;;;22.50
20733;BMP180;10527;52.124;5.196;2023-11-19T06:23:21;100569.00;;;22.40
20733;BMP180;10527;52.124;5.196;2023-11-19T06:25:48;100571.00;;;22.40
20733;BMP180;10527;52.124;5.196;2023-11-19T06:28:16;100574.00;;;22.40
20733;BMP180;10527;52.124;5.196;2023-11-19T06:30:43;100566.00;;;22.40
20733;BMP180;10527;52.124;5.196;2023-11-19T06:33:15;100577.00;;;22.40
20733;BMP180;10527;52.124;5.196;2023-11-19T06:35:42;100591.00;;;22.40
20733;BMP180;10527;52.124;5.196;2023-11-19T06:38:10;100591.00;;;22.40
20733;BMP180;10527;52.124;5.196;2023-11-19T06:40:38;100591.00;;;22.40
20733;BMP180;10527;52.124;5.196;2023-11-19T06:43:07;100589.00;;;22.40
20733;BMP180;10527;52.124;5.196;2023-11-19T06:45:38;100589.00;;;22.40
20733;BMP180;10527;52.124;5.196;2023-11-19T06:48:06;100592.00;;;22.40
20733;BMP180;10527;52.124;5.196;2023-11-19T06:50:36;100588.00;;;22.40
20733;BMP180;10527;52.124;5.196;2023-11-19T06:53:04;100583.00;;;22.40
20733;BMP180;10527;52.124;5.196;2023-11-19T06:55:33;100581.00;;;22.40
20733;BMP180;10527;52.124;5.196;2023-11-19T06:58:01;100583.00;;;22.40
20733;BMP180;10527;52.124;5.196;2023-11-19T07:00:29;100591.00;;;22.40
20733;BMP180;10527;52.124;5.196;2023-11-19T07:03:00;100595.00;;;22.40
20733;BMP180;10527;52.124;5.196;2023-11-19T07:05:27;100605.00;;;22.40
20733;BMP180;10527;52.124;5.196;2023-11-19T07:07:55;100602.00;;;22.40
20733;BMP180;10527;52.124;5.196;2023-11-19T07:10:23;100610.00;;;22.40
20733;BMP180;10527;52.124;5.196;2023-11-19T07:12:50;100601.00;;;22.40
20733;BMP180;10527;52.124;5.196;2023-11-19T07:15:17;100604.00;;;22.40
20733;BMP180;10527;52.124;5.196;2023-11-19T07:17:48;100604.00;;;22.40
20733;BMP180;10527;52.124;5.196;2023-11-19T07:20:30;100612.00;;;22.30
20733;BMP180;10527;52.124;5.196;2023-11-19T07:22:58;100620.00;;;22.30
20733;BMP180;10527;52.124;5.196;2023-11-19T07:25:25;100617.00;;;22.30
20733;BMP180;10527;52.124;5.196;2023-11-19T07:27:53;100620.00;;;22.30
20733;BMP180;10527;52.124;5.196;2023-11-19T07:30:21;100617.00;;;22.30
20733;BMP180;10527;52.124;5.196;2023-11-19T07:32:49;100625.00;;;22.30
20733;BMP180;10527;52.124;5.196;2023-11-19T07:35:17;100622.00;;;22.30
20733;BMP180;10527;52.124;5.196;2023-11-19T07:37:48;100623.00;;;22.30
20733;BMP180;10527;52.124;5.196;2023-11-19T07:40:17;100628.00;;;22.30
20733;BMP180;10527;52.124;5.196;2023-11-19T07:42:45;100633.00;;;22.30
20733;BMP180;10527;52.124;5.196;2023-11-19T07:45:12;100622.00;;;22.30
20733;BMP180;10527;52.124;5.196;2023-11-19T07:47:40;100627.00;;;22.30
20733;BMP180;10527;52.124;5.196;2023-11-19T07:50:08;100621.00;;;22.40
20733;BMP180;10527;52.124;5.196;2023-11-19T07:52:36;100626.00;;;22.40
20733;BMP180;10527;52.124;5.196;2023-11-19T07:55:04;100626.00;;;22.40
20733;BMP180;10527;52.124;5.196;2023-11-19T07:57:32;100626.00;;;22.40
20733;BMP180;10527;52.124;5.196;2023-11-19T07:59:59;100625.00;;;22.50
20733;BMP180;10527;52.124;5.196;2023-11-19T08:02:28;100627.00;;;22.50
20733;BMP180;10527;52.124;5.196;2023-11-19T08:04:56;100621.00;;;22.50
20733;BMP180;10527;52.124;5.196;2023-11-19T08:07:24;100626.00;;;22.60
20733;BMP180;10527;52.124;5.196;2023-11-19T08:09:51;100625.00;;;22.60
20733;BMP180;10527;52.124;5.196;2023-11-19T08:12:18;100621.00;;;22.60
20733;BMP180;10527;52.124;5.196;2023-11-19T08:14:48;100623.00;;;22.60
20733;BMP180;10527;52.124;5.196;2023-11-19T08:17:17;100609.00;;;22.60
20733;BMP180;10527;52.124;5.196;2023-11-19T08:19:53;100616.00;;;22.60
20733;BMP180;10527;52.124;5.196;2023-11-19T08:22:20;100632.00;;;22.60
20733;BMP180;10527;52.124;5.196;2023-11-19T08:24:48;100627.00;;;22.60
20733;BMP180;10527;52.124;5.196;2023-11-19T08:27:16;100634.00;;;22.60
20733;BMP180;10527;52.124;5.196;2023-11-19T08:29:48;100631.00;;;22.70
20733;BMP180;10527;52.124;5.196;2023-11-19T08:32:16;100629.00;;;22.70
20733;BMP180;10527;52.124;5.196;2023-11-19T08:34:46;100635.00;;;22.70
20733;BMP180;10527;52.124;5.196;2023-11-19T08:37:13;100630.00;;;22.70
20733;BMP180;10527;52.124;5.196;2023-11-19T08:39:41;100644.00;;;22.70
20733;BMP180;10527;52.124;5.196;2023-11-19T08:42:09;100643.00;;;22.70
20733;BMP180;10527;52.124;5.196;2023-11-19T08:44:38;100634.00;;;22.70
20733;BMP180;10527;52.124;5.196;2023-11-19T08:47:24;100642.00;;;22.70
20733;BMP180;10527;52.124;5.196;2023-11-19T08:49:52;100661.00;;;22.70
20733;BMP180;10527;52.124;5.196;2023-11-19T08:52:23;100641.00;;;22.70
20733;BMP180;10527;52.124;5.196;2023-11-19T08:54:50;100642.00;;;22.70
20733;BMP180;10527;52.124;5.196;2023-11-19T08:57:18;100653.00;;;22.70
20733;BMP180;10527;52.124;5.196;2023-11-19T08:59:45;100658.00;;;22.80
20733;BMP180;10527;52.124;5.196;2023-11-19T09:02:13;100646.00;;;22.80
20733;BMP180;10527;52.124;5.196;2023-11-19T09:04:41;100641.00;;;22.80
20733;BMP180;10527;52.124;5.196;2023-11-19T09:07:17;100644.00;;;22.80
20733;BMP180;10527;52.124;5.196;2023-11-19T09:09:44;100638.00;;;22.80
20733;BMP180;10527;52.124;5.196;2023-11-19T09:12:20;100638.00;;;22.90
20733;BMP180;10527;52.124;5.196;2023-11-19T09:14:56;100644.00;;;22.90
20733;BMP180;10527;52.124;5.196;2023-11-19T09:17:24;100643.00;;;22.90
20733;BMP180;10527;52.124;5.196;2023-11-19T09:19:53;100628.00;;;22.90
20733;BMP180;10527;52.124;5.196;2023-11-19T09:22:21;100633.00;;;23.00
20733;BMP180;10527;52.124;5.196;2023-11-19T09:24:49;100642.00;;;23.00
20733;BMP180;10527;52.124;5.196;2023-11-19T09:27:16;100632.00;;;23.00
20733;BMP180;10527;52.124;5.196;2023-11-19T09:29:44;100647.00;;;23.00
20733;BMP180;10527;52.124;5.196;2023-11-19T09:32:14;100645.00;;;23.10
20733;BMP180;10527;52.124;5.196;2023-11-19T09:34:41;100641.00;;;23.10
20733;BMP180;10527;52.124;5.196;2023-11-19T09:37:23;100644.00;;;23.20
20733;BMP180;10527;52.124;5.196;2023-11-19T09:39:51;100645.00;;;23.10
20733;BMP180;10527;52.124;5.196;2023-11-19T09:42:20;100643.00;;;23.20
20733;BMP180;10527;52.124;5.196;2023-11-19T09:44:48;100647.00;;;23.20
20733;BMP180;10527;52.124;5.196;2023-11-19T09:47:17;100639.00;;;23.20
20733;BMP180;10527;52.124;5.196;2023-11-19T09:49:46;100641.00;;;23.20
20733;BMP180;10527;52.124;5.196;2023-11-19T09:52:15;100637.00;;;23.20
20733;BMP180;10527;52.124;5.196;2023-11-19T09:54:43;100628.00;;;23.20
20733;BMP180;10527;52.124;5.196;2023-11-19T09:57:11;100642.00;;;23.20
20733;BMP180;10527;52.124;5.196;2023-11-19T09:59:40;100641.00;;;23.20
20733;BMP180;10527;52.124;5.196;2023-11-19T10:02:08;100630.00;;;23.20
20733;BMP180;10527;52.124;5.196;2023-11-19T10:04:39;100634.00;;;23.30
20733;BMP180;10527;52.124;5.196;2023-11-19T10:07:21;100644.00;;;23.30
20733;BMP180;10527;52.124;5.196;2023-11-19T10:09:57;100633.00;;;23.30
20733;BMP180;10527;52.124;5.196;2023-11-19T10:12:25;100618.00;;;23.30
20733;BMP180;10527;52.124;5.196;2023-11-19T10:14:54;100617.00;;;23.40
20733;BMP180;10527;52.124;5.196;2023-11-19T10:17:28;100614.00;;;23.50
20733;BMP180;10527;52.124;5.196;2023-11-19T10:19:56;100600.00;;;23.60
20733;BMP180;10527;52.124;5.196;2023-11-19T10:22:28;100597.00;;;23.70
20733;BMP180;10527;52.124;5.196;2023-11-19T10:24:55;100604.00;;;23.70
20733;BMP180;10527;52.124;5.196;2023-11-19T10:27:26;100612.00;;;23.80
20733;BMP180;10527;52.124;5.196;2023-11-19T10:29:54;100614.00;;;23.90
20733;BMP180;10527;52.124;5.196;2023-11-19T10:32:22;100618.00;;;23.90
20733;BMP180;10527;52.124;5.196;2023-11-19T10:35:22;100606.00;;;24.00
20733;BMP180;10527;52.124;5.196;2023-11-19T10:37:56;100611.00;;;24.00
20733;BMP180;10527;52.124;5.196;2023-11-19T10:40:38;100618.00;;;24.10
20733;BMP180;10527;52.124;5.196;2023-11-19T10:43:09;100618.00;;;24.10
20733;BMP180;10527;52.124;5.196;2023-11-19T10:45:37;100595.00;;;24.10
20733;BMP180;10527;52.124;5.196;2023-11-19T10:48:18;100612.00;;;24.10
20733;BMP180;10527;52.124;5.196;2023-11-19T10:50:48;100601.00;;;24.20
20733;BMP180;10527;52.124;5.196;2023-11-19T10:53:18;100596.00;;;24.20
20733;BMP180;10527;52.124;5.196;2023-11-19T10:55:48;100599.00;;;24.30
20733;BMP180;10527;52.124;5.196;2023-11-19T10:58:16;100600.00;;;24.40
20733;BMP180;10527;52.124;5.196;2023-11-19T11:00:51;100596.00;;;24.50
20733;BMP180;10527;52.124;5.196;2023-11-19T11:03:20;100608.00;;;24.50
20733;BMP180;10527;52.124;5.196;2023-11-19T11:05:49;100609.00;;;24.60
20733;BMP180;10527;52.124;5.196;2023-11-19T11:11:16;100615.00;;;24.60
20733;BMP180;10527;52.124;5.196;2023-11-19T11:13:53;100615.00;;;24.60
20733;BMP180;10527;52.124;5.196;2023-11-19T11:16:26;100611.00;;;24.60
20733;BMP180;10527;52.124;5.196;2023-11-19T11:18:55;100600.00;;;24.50
20733;BMP180;10527;52.124;5.196;2023-11-19T11:21:25;100599.00;;;24.50
20733;BMP180;10527;52.124;5.196;2023-11-19T11:26:54;100598.00;;;24.50
20733;BMP180;10527;52.124;5.196;2023-11-19T11:32:44;100586.00;;;24.50
20733;BMP180;10527;52.124;5.196;2023-11-19T11:35:49;100591.00;;;24.50
20733;BMP180;10527;52.124;5.196;2023-11-19T11:38:30;100592.00;;;24.50
20733;BMP180;10527;52.124;5.196;2023-11-19T11:41:22;100589.00;;;24.50
20733;BMP180;10527;52.124;5.196;2023-11-19T11:44:01;100587.00;;;24.50
20733;BMP180;10527;52.124;5.196;2023-11-19T11:49:06;100593.00;;;24.50
20733;BMP180;10527;52.124;5.196;2023-11-19T11:57:11;100593.00;;;24.40
20733;BMP180;10527;52.124;5.196;2023-11-19T11:59:51;100580.00;;;24.40
20733;BMP180;10527;52.124;5.196;2023-11-19T12:02:23;100582.00;;;24.40
20733;BMP180;10527;52.124;5.196;2023-11-19T12:04:53;100579.00;;;24.40
20733;BMP180;10527;52.124;5.196;2023-11-19T12:07:22;100561.00;;;24.40
20733;BMP180;10527;52.124;5.196;2023-11-19T12:10:06;100571.00;;;24.40
20733;BMP180;10527;52.124;5.196;2023-11-19T12:13:02;100560.00;;;24.40
20733;BMP180;10527;52.124;5.196;2023-11-19T12:15:32;100562.00;;;24.40
20733;BMP180;10527;52.124;5.196;2023-11-19T12:18:00;100560.00;;;24.40
20733;BMP180;10527;52.124;5.196;2023-11-19T12:20:27;100560.00;;;24.40
20733;BMP180;10527;52.124;5.196;2023-11-19T12:23:05;100566.00;;;24.40
20733;BMP180;10527;52.124;5.196;2023-11-19T12:25:35;100562.00;;;24.40
20733;BMP180;10527;52.124;5.196;2023-11-19T12:28:03;100568.00;;;24.40
20733;BMP180;10527;52.124;5.196;2023-11-19T12:30:32;100561.00;;;24.40
20733;BMP180;10527;52.124;5.196;2023-11-19T12:33:00;100590.00;;;24.40
20733;BMP180;10527;52.124;5.196;2023-11-19T12:35:27;100566.00;;;24.40
20733;BMP180;10527;52.124;5.196;2023-11-19T12:37:55;100569.00;;;24.40
20733;BMP180;10527;52.124;5.196;2023-11-19T12:40:24;100569.00;;;24.40
20733;BMP180;10527;52.124;5.196;2023-11-19T12:42:56;100575.00;;;24.40
20733;BMP180;10527;52.124;5.196;2023-11-19T12:45:33;100573.00;;;24.40
20733;BMP180;10527;52.124;5.196;2023-11-19T12:48:05;100580.00;;;24.40
20733;BMP180;10527;52.124;5.196;2023-11-19T12:50:56;100579.00;;;24.40
20733;BMP180;10527;52.124;5.196;2023-11-19T12:53:26;100564.00;;;24.40
20733;BMP180;10527;52.124;5.196;2023-11-19T12:55:54;100579.00;;;24.40
20733;BMP180;10527;52.124;5.196;2023-11-19T12:58:35;100567.00;;;24.40
20733;BMP180;10527;52.124;5.196;2023-11-19T13:01:07;100568.00;;;24.40
20733;BMP180;10527;52.124;5.196;2023-11-19T13:03:36;100566.00;;;24.40
20733;BMP180;10527;52.124;5.196;2023-11-19T13:06:08;100566.00;;;24.40
20733;BMP180;10527;52.124;5.196;2023-11-19T13:08:46;100592.00;;;24.40
20733;BMP180;10527;52.124;5.196;2023-11-19T13:11:34;100596.00;;;24.40
20733;BMP180;10527;52.124;5.196;2023-11-19T13:14:05;100569.00;;;24.40
20733;BMP180;10527;52.124;5.196;2023-11-19T13:16:37;100561.00;;;24.40
20733;BMP180;10527;52.124;5.196;2023-11-19T13:19:05;100570.00;;;24.40
20733;BMP180;10527;52.124;5.196;2023-11-19T13:21:32;100565.00;;;24.40
20733;BMP180;10527;52.124;5.196;2023-11-19T13:24:01;100565.00;;;24.40
20733;BMP180;10527;52.124;5.196;2023-11-19T13:26:28;100553.00;;;24.40
20733;BMP180;10527;52.124;5.196;2023-11-19T13:28:55;100549.00;;;24.40
20733;BMP180;10527;52.124;5.196;2023-11-19T13:31:23;100544.00;;;24.40
20733;BMP180;10527;52.124;5.196;2023-11-19T13:33:51;100548.00;;;24.50
20733;BMP180;10527;52.124;5.196;2023-11-19T13:36:19;100536.00;;;24.50
20733;BMP180;10527;52.124;5.196;2023-11-19T13:38:49;100546.00;;;24.50
20733;BMP180;10527;52.124;5.196;2023-11-19T13:41:18;100567.00;;;24.50
20733;BMP180;10527;52.124;5.196;2023-11-19T13:43:45;100553.00;;;24.50
20733;BMP180;10527;52.124;5.196;2023-11-19T13:46:13;100542.00;;;24.50
20733;BMP180;10527;52.124;5.196;2023-11-19T13:48:41;100548.00;;;24.50
20733;BMP180;10527;52.124;5.196;2023-11-19T13:51:09;100556.00;;;24.50
20733;BMP180;10527;52.124;5.196;2023-11-19T13:53:37;100555.00;;;24.50
20733;BMP180;10527;52.124;5.196;2023-11-19T13:56:08;100551.00;;;24.50
20733;BMP180;10527;52.124;5.196;2023-11-19T13:58:35;100548.00;;;24.60
20733;BMP180;10527;52.124;5.196;2023-11-19T14:01:04;100553.00;;;24.60
20733;BMP180;10527;52.124;5.196;2023-11-19T14:03:32;100560.00;;;24.60
20733;BMP180;10527;52.124;5.196;2023-11-19T14:06:01;100549.00;;;24.60
20733;BMP180;10527;52.124;5.196;2023-11-19T14:08:29;100545.00;;;24.50
20733;BMP180;10527;52.124;5.196;2023-11-19T14:11:02;100548.00;;;24.60
20733;BMP180;10527;52.124;5.196;2023-11-19T14:13:30;100555.00;;;24.60
20733;BMP180;10527;52.124;5.196;2023-11-19T14:15:57;100551.00;;;24.60
20733;BMP180;10527;52.124;5.196;2023-11-19T14:18:24;100536.00;;;24.50
20733;BMP180;10527;52.124;5.196;2023-11-19T14:20:57;100538.00;;;24.50
20733;BMP180;10527;52.124;5.196;2023-11-19T14:23:25;100529.00;;;24.50
20733;BMP180;10527;52.124;5.196;2023-11-19T14:25:55;100529.00;;;24.50
20733;BMP180;10527;52.124;5.196;2023-11-19T14:28:23;100541.00;;;24.50